createdAt,value
2019-02-16T00:00:03.145Z,41.44
2019-02-16T00:02:33.724Z,46.79
2019-02-16T00:05:04.536Z,47.42
2019-02-16T00:07:34.877Z,41.24
2019-02-16T00:10:05.414Z,40.19
2019-02-16T00:12:35.646Z,39.95
2019-02-16T00:15:06.133Z,40.15
2019-02-16T00:17:36.452Z,44.71
2019-02-16T00:20:06.811Z,39.93
2019-02-16T00:22:37.041Z,40.63
2019-02-16T00:25:07.598Z,40.73
2019-02-16T00:27:37.932Z,40.73
2019-02-16T00:30:08.195Z,40.87
2019-02-16T00:32:38.695Z,40.24
2019-02-16T00:35:09.010Z,39.30
2019-02-16T00:37:39.313Z,38.41
2019-02-16T00:40:09.766Z,38.26
2019-02-16T00:42:40.104Z,38.34
2019-02-16T00:45:10.340Z,44.08
2019-02-16T00:47:40.687Z,38.86
2019-02-16T00:50:11.730Z,39.27
2019-02-16T00:52:42.072Z,39.37
2019-02-16T00:55:12.318Z,39.28
2019-02-16T00:57:42.733Z,38.88
2019-02-16T01:00:13.360Z,39.30
2019-02-16T01:02:43.688Z,39.25
2019-02-16T01:05:13.960Z,39.28
2019-02-16T01:07:44.262Z,39.85
2019-02-16T01:10:14.812Z,39.92
2019-02-16T01:12:45.167Z,38.78
2019-02-16T01:15:15.424Z,38.51
2019-02-16T01:17:45.849Z,39.33
2019-02-16T01:20:16.085Z,39.36
2019-02-16T01:22:46.313Z,40.12
2019-02-16T01:25:16.633Z,40.13
2019-02-16T01:27:47.036Z,39.97
2019-02-16T01:30:17.277Z,40.24
2019-02-16T01:32:47.535Z,39.52
2019-02-16T01:35:17.871Z,39.47
2019-02-16T01:37:48.262Z,40.41
2019-02-16T01:40:18.502Z,39.79
2019-02-16T01:42:48.743Z,39.58
2019-02-16T01:45:19.071Z,39.59
2019-02-16T01:47:49.605Z,40.15
2019-02-16T01:50:19.925Z,40.00
2019-02-16T01:52:50.181Z,39.97
2019-02-16T01:55:20.525Z,39.55
2019-02-16T01:57:50.735Z,39.86
2019-02-16T02:00:21.138Z,40.34
2019-02-16T02:02:51.466Z,40.35
2019-02-16T02:05:21.878Z,40.67
2019-02-16T02:07:52.126Z,41.03
2019-02-16T02:10:22.568Z,40.76
2019-02-16T02:12:52.878Z,40.12
2019-02-16T02:15:23.092Z,40.21
2019-02-16T02:17:53.328Z,40.63
2019-02-16T02:20:24.547Z,40.70
2019-02-16T02:22:54.895Z,41.06
2019-02-16T02:25:25.135Z,41.17
2019-02-16T02:27:55.371Z,40.71
2019-02-16T02:30:25.712Z,40.62
2019-02-16T02:32:56.035Z,40.38
2019-02-16T02:35:26.265Z,40.23
2019-02-16T02:37:56.582Z,40.83
2019-02-16T02:40:26.820Z,40.78
2019-02-16T02:42:57.043Z,40.23
2019-02-16T02:45:27.381Z,40.75
2019-02-16T02:47:58.084Z,42.37
2019-02-16T02:50:28.468Z,42.55
2019-02-16T02:52:58.685Z,42.49
2019-02-16T02:55:29.117Z,42.54
2019-02-16T02:57:59.444Z,42.68
2019-02-16T03:00:29.739Z,42.68
2019-02-16T03:02:59.981Z,43.01
2019-02-16T03:05:30.387Z,43.78
2019-02-16T03:08:00.726Z,43.85
2019-02-16T03:10:30.960Z,43.20
2019-02-16T03:13:01.195Z,42.57
2019-02-16T03:15:31.628Z,42.85
2019-02-16T03:18:01.856Z,45.02
2019-02-16T03:20:32.188Z,43.80
2019-02-16T03:23:19.010Z,49.17
2019-02-16T03:26:15.108Z,45.81
2019-02-16T03:28:56.202Z,43.31
2019-02-16T03:32:14.747Z,43.93
2019-02-16T03:35:07.432Z,45.01
2019-02-16T03:37:59.349Z,57.85
2019-02-16T03:40:29.658Z,46.33
2019-02-16T03:43:00.007Z,49.16
2019-02-16T03:45:30.335Z,51.92
2019-02-16T03:48:00.551Z,45.50
2019-02-16T03:50:31.117Z,45.02
2019-02-16T03:53:01.567Z,45.14
2019-02-16T03:55:31.886Z,45.27
2019-02-16T03:58:02.236Z,45.23
2019-02-16T04:00:32.577Z,45.60
2019-02-16T04:03:02.822Z,45.83
2019-02-16T04:05:33.038Z,47.14
2019-02-16T04:08:03.378Z,47.49
2019-02-16T04:10:33.676Z,47.70
2019-02-16T04:13:04.067Z,47.06
2019-02-16T04:15:34.426Z,47.24
2019-02-16T04:18:04.783Z,46.01
2019-02-16T04:20:35.112Z,46.03
2019-02-16T04:23:05.352Z,47.69
2019-02-16T04:25:35.597Z,48.79
2019-02-16T04:28:05.935Z,48.69
2019-02-16T04:30:36.251Z,48.97
2019-02-16T04:33:06.481Z,49.71
2019-02-16T04:35:36.768Z,49.67
2019-02-16T04:38:07.117Z,48.64
2019-02-16T04:40:37.435Z,47.68
2019-02-16T04:43:07.733Z,47.61
2019-02-16T04:45:37.985Z,48.34
2019-02-16T04:48:08.323Z,48.86
2019-02-16T04:50:38.892Z,47.96
2019-02-16T04:53:09.208Z,47.86
2019-02-16T04:55:39.441Z,48.83
2019-02-16T04:58:09.868Z,47.75
2019-02-16T05:00:40.196Z,47.28
2019-02-16T05:03:10.429Z,48.56
2019-02-16T05:05:40.681Z,48.35
2019-02-16T05:08:11.018Z,48.41
2019-02-16T05:10:41.366Z,47.58
2019-02-16T05:13:11.585Z,46.67
2019-02-16T05:15:41.802Z,47.80
2019-02-16T05:18:12.131Z,48.18
2019-02-16T05:20:42.346Z,48.10
2019-02-16T05:23:12.692Z,48.04
2019-02-16T05:25:43.026Z,48.11
2019-02-16T05:28:13.267Z,47.27
2019-02-16T05:30:43.515Z,47.63
2019-02-16T05:33:13.842Z,47.05
2019-02-16T05:35:44.169Z,47.41
2019-02-16T05:38:14.400Z,48.27
2019-02-16T05:40:44.654Z,48.04
2019-02-16T05:43:15.014Z,48.03
2019-02-16T05:45:45.349Z,47.83
2019-02-16T05:48:15.591Z,47.62
2019-02-16T05:50:45.951Z,48.61
2019-02-16T05:53:16.289Z,48.51
2019-02-16T05:55:46.621Z,47.49
2019-02-16T05:58:16.846Z,50.48
2019-02-16T06:00:47.174Z,45.51
2019-02-16T06:03:17.424Z,45.44
2019-02-16T06:05:47.681Z,43.45
2019-02-16T06:08:18.005Z,43.22
2019-02-16T06:10:48.347Z,42.99
2019-02-16T06:13:18.594Z,42.61
2019-02-16T06:15:48.854Z,41.94
2019-02-16T06:18:19.238Z,42.76
2019-02-16T06:20:49.598Z,43.52
2019-02-16T06:23:19.847Z,42.93
2019-02-16T06:25:50.155Z,41.91
2019-02-16T06:28:20.478Z,42.19
2019-02-16T06:30:50.810Z,42.88
2019-02-16T06:33:21.041Z,41.35
2019-02-16T06:35:54.659Z,40.20
2019-02-16T06:38:25.006Z,39.56
2019-02-16T06:40:55.255Z,39.37
2019-02-16T06:43:25.632Z,39.53
2019-02-16T06:45:55.997Z,38.48
2019-02-16T06:48:26.259Z,37.45
2019-02-16T06:50:56.702Z,36.23
2019-02-16T06:53:27.290Z,36.49
2019-02-16T06:56:05.509Z,35.00
2019-02-16T06:58:35.753Z,34.65
2019-02-16T07:01:06.013Z,33.78
2019-02-16T07:03:36.555Z,33.23
2019-02-16T07:06:06.879Z,34.10
2019-02-16T07:08:37.102Z,32.92
2019-02-16T07:11:07.744Z,32.59
2019-02-16T07:13:38.119Z,31.73
2019-02-16T07:16:40.892Z,30.86
2019-02-16T07:19:20.299Z,30.84
2019-02-16T07:21:51.088Z,30.26
2019-02-16T07:24:21.441Z,31.31
2019-02-16T07:26:52.002Z,34.67
2019-02-16T07:29:22.476Z,32.14
2019-02-16T07:31:52.841Z,26.09
2019-02-16T07:34:23.173Z,32.88
2019-02-16T07:36:53.423Z,30.05
2019-02-16T07:39:23.814Z,28.20
2019-02-16T07:41:54.215Z,28.83
2019-02-16T07:44:46.065Z,26.26
2019-02-16T07:47:47.233Z,34.07
2019-02-16T07:50:45.295Z,24.92
2019-02-16T07:53:30.935Z,27.83
2019-02-16T07:56:00.010Z,26.44
2019-02-16T07:58:46.287Z,25.17
2019-02-16T08:01:35.472Z,24.72
2019-02-16T08:04:23.358Z,24.35
2019-02-16T08:09:56.899Z,25.29
2019-02-16T08:12:37.473Z,22.12
2019-02-16T08:15:35.855Z,24.54
2019-02-16T08:18:28.079Z,26.42
2019-02-16T08:21:20.147Z,23.31
2019-02-16T08:24:25.085Z,21.68
2019-02-16T08:27:14.107Z,21.03
2019-02-16T08:29:51.616Z,20.08
2019-02-16T08:32:43.767Z,22.10
2019-02-16T08:35:27.912Z,22.92
2019-02-16T08:38:29.472Z,23.66
2019-02-16T08:41:21.674Z,21.99
2019-02-16T08:44:15.359Z,21.51
2019-02-16T08:47:17.959Z,19.67
2019-02-16T08:50:07.641Z,21.50
2019-02-16T08:52:47.378Z,20.62
2019-02-16T08:55:42.692Z,20.13
2019-02-16T08:58:36.258Z,19.33
2019-02-16T09:01:29.523Z,20.19
2019-02-16T09:04:11.408Z,20.09
2019-02-16T09:06:59.555Z,20.25
2019-02-16T09:09:49.745Z,18.83
2019-02-16T09:12:29.385Z,18.77
2019-02-16T09:15:11.994Z,18.57
2019-02-16T09:18:09.556Z,18.08
2019-02-16T09:20:52.885Z,18.06
2019-02-16T09:23:42.565Z,17.24
2019-02-16T09:26:24.234Z,17.02
2019-02-16T09:29:10.036Z,17.07
2019-02-16T09:31:54.272Z,17.15
2019-02-16T09:34:31.953Z,17.35
2019-02-16T09:37:20.074Z,17.88
2019-02-16T09:40:09.806Z,17.71
2019-02-16T09:42:55.880Z,17.57
2019-02-16T09:45:44.857Z,17.39
2019-02-16T09:48:29.798Z,16.97
2019-02-16T09:51:25.088Z,16.45
2019-02-16T09:54:17.105Z,17.20
2019-02-16T09:56:55.756Z,16.83
2019-02-16T09:59:50.767Z,17.79
2019-02-16T10:02:36.552Z,17.89
2019-02-16T10:05:23.471Z,17.71
2019-02-16T10:08:13.572Z,17.75
2019-02-16T10:11:00.574Z,17.38
2019-02-16T10:13:48.913Z,17.93
2019-02-16T10:16:53.267Z,19.15
2019-02-16T10:19:42.303Z,18.54
2019-02-16T10:22:40.610Z,18.21
2019-02-16T10:25:28.410Z,16.88
2019-02-16T10:28:12.453Z,15.33
2019-02-16T10:30:47.682Z,15.66
2019-02-16T10:33:54.937Z,16.57
2019-02-16T10:36:44.037Z,16.04
2019-02-16T10:39:42.309Z,16.87
2019-02-16T10:42:20.837Z,16.90
2019-02-16T10:45:06.819Z,16.21
2019-02-16T10:47:58.770Z,15.68
2019-02-16T10:50:45.276Z,15.24
2019-02-16T10:53:37.052Z,16.19
2019-02-16T10:56:22.750Z,16.63
2019-02-16T10:59:10.511Z,16.74
2019-02-16T11:02:15.367Z,16.86
2019-02-16T11:05:22.519Z,15.70
2019-02-16T11:08:01.038Z,15.37
2019-02-16T11:10:50.422Z,16.12
2019-02-16T11:13:34.555Z,16.48
2019-02-16T11:16:16.274Z,16.58
2019-02-16T11:19:04.234Z,16.53
2019-02-16T11:22:11.705Z,15.75
2019-02-16T11:25:03.672Z,15.62
2019-02-16T11:27:51.657Z,14.60
2019-02-16T11:30:52.627Z,14.98
2019-02-16T11:33:41.654Z,15.03
2019-02-16T11:36:18.145Z,14.09
2019-02-16T11:39:11.207Z,13.98
2019-02-16T11:42:03.851Z,14.96
2019-02-16T11:44:52.306Z,14.42
2019-02-16T11:47:44.444Z,13.29
2019-02-16T11:50:25.292Z,13.61
2019-02-16T11:53:20.134Z,14.89
2019-02-16T11:56:00.046Z,13.42
2019-02-16T11:58:52.694Z,13.13
2019-02-16T12:01:40.908Z,13.28
2019-02-16T12:04:37.379Z,13.35
2019-02-16T12:07:21.217Z,12.39
2019-02-16T12:10:01.879Z,12.24
2019-02-16T12:13:00.065Z,14.32
2019-02-16T12:15:43.803Z,15.04
2019-02-16T12:18:39.828Z,15.68
2019-02-16T12:21:38.820Z,14.87
2019-02-16T12:24:37.517Z,14.06
2019-02-16T12:27:27.695Z,13.69
2019-02-16T12:30:26.486Z,13.63
2019-02-16T12:33:14.323Z,13.44
2019-02-16T12:36:10.244Z,12.65
2019-02-16T12:39:05.566Z,13.60
2019-02-16T12:42:03.835Z,13.51
2019-02-16T12:44:56.582Z,12.89
2019-02-16T12:47:46.566Z,13.13
2019-02-16T12:50:27.229Z,12.76
2019-02-16T12:53:16.502Z,14.81
2019-02-16T12:56:01.574Z,14.79
2019-02-16T12:58:39.566Z,15.05
2019-02-16T13:01:19.703Z,15.97
2019-02-16T13:04:07.670Z,15.84
2019-02-16T13:07:05.235Z,17.02
2019-02-16T13:09:42.517Z,13.05
2019-02-16T13:12:32.299Z,13.99
2019-02-16T13:15:11.325Z,13.37
2019-02-16T13:18:01.289Z,13.78
2019-02-16T13:20:40.007Z,14.07
2019-02-16T13:23:27.549Z,14.77
2019-02-16T13:26:22.549Z,15.71
2019-02-16T13:29:10.421Z,15.44
2019-02-16T13:31:59.472Z,19.26
2019-02-16T13:34:51.592Z,14.90
2019-02-16T13:37:37.762Z,14.94
2019-02-16T13:40:39.211Z,19.29
2019-02-16T13:43:27.151Z,15.78
2019-02-16T13:46:14.562Z,15.38
2019-02-16T13:48:52.888Z,16.58
2019-02-16T13:51:45.001Z,15.67
2019-02-16T13:54:36.821Z,16.39
2019-02-16T13:57:24.710Z,16.48
2019-02-16T14:00:01.360Z,15.25
2019-02-16T14:02:59.428Z,15.45
2019-02-16T14:05:45.711Z,16.10
2019-02-16T14:08:21.796Z,16.43
2019-02-16T14:11:10.664Z,17.62
2019-02-16T14:13:54.510Z,16.97
2019-02-16T14:16:42.566Z,15.23
2019-02-16T14:19:12.806Z,15.37
2019-02-16T14:21:43.151Z,15.59
2019-02-16T14:24:13.487Z,16.26
2019-02-16T14:26:43.815Z,16.18
2019-02-16T14:29:14.041Z,17.31
2019-02-16T14:31:44.355Z,15.31
2019-02-16T14:34:14.691Z,15.45
2019-02-16T14:36:46.495Z,15.43
2019-02-16T14:39:21.799Z,15.14
2019-02-16T14:41:52.032Z,15.00
2019-02-16T14:44:22.358Z,15.40
2019-02-16T14:46:52.599Z,14.15
2019-02-16T14:49:22.996Z,15.29
2019-02-16T14:51:53.331Z,14.67
2019-02-16T14:54:23.577Z,14.77
2019-02-16T14:56:53.850Z,15.15
2019-02-16T14:59:24.198Z,15.05
2019-02-16T15:01:55.029Z,15.88
2019-02-16T15:04:25.263Z,17.60
2019-02-16T15:06:55.497Z,16.33
2019-02-16T15:09:25.831Z,18.14
2019-02-16T15:11:56.619Z,17.82
2019-02-16T15:14:26.996Z,18.62
2019-02-16T15:16:57.229Z,19.18
2019-02-16T15:19:27.563Z,19.43
2019-02-16T15:21:57.998Z,19.11
2019-02-16T15:24:28.236Z,18.85
2019-02-16T15:26:58.586Z,19.17
2019-02-16T15:29:28.849Z,20.93
2019-02-16T15:31:59.106Z,22.09
2019-02-16T15:34:29.464Z,21.93
2019-02-16T15:36:59.821Z,21.84
2019-02-16T15:39:30.063Z,22.75
2019-02-16T15:42:00.301Z,22.58
2019-02-16T15:44:30.667Z,23.44
2019-02-16T15:47:01.026Z,24.56
2019-02-16T15:49:31.293Z,28.47
2019-02-16T15:52:01.545Z,26.93
2019-02-16T15:54:31.905Z,22.94
2019-02-16T15:57:02.282Z,25.56
2019-02-16T15:59:35.173Z,22.27
2019-02-16T16:02:04.558Z,22.29
2019-02-16T16:04:34.912Z,22.29
2019-02-16T16:07:06.927Z,21.76
2019-02-16T16:09:44.366Z,22.32
2019-02-16T16:12:43.101Z,23.91
2019-02-16T16:15:42.297Z,24.76
2019-02-16T16:18:24.363Z,24.33
2019-02-16T16:21:12.217Z,24.29
2019-02-16T16:23:59.948Z,24.75
2019-02-16T16:26:47.469Z,25.38
2019-02-16T16:29:51.975Z,24.24
2019-02-16T16:32:37.857Z,23.55
2019-02-16T16:35:34.330Z,24.01
2019-02-16T16:38:38.893Z,23.79
2019-02-16T16:41:25.150Z,25.16
2019-02-16T16:44:17.294Z,26.20
2019-02-16T16:47:09.455Z,26.63
2019-02-16T16:49:58.593Z,27.39
2019-02-16T16:52:47.637Z,26.41
2019-02-16T16:55:41.938Z,25.66
2019-02-16T17:01:34.407Z,26.33
2019-02-16T17:04:21.351Z,25.37
2019-02-16T17:07:10.422Z,25.91
2019-02-16T17:09:51.292Z,25.84
2019-02-16T17:12:46.515Z,26.78
2019-02-16T17:15:34.618Z,26.71
2019-02-16T17:18:39.182Z,26.66
2019-02-16T17:21:28.301Z,27.16
2019-02-16T17:24:23.582Z,26.89
2019-02-16T17:27:31.143Z,27.49
2019-02-16T17:30:15.240Z,29.58
2019-02-16T17:33:07.317Z,30.31
2019-02-16T17:35:55.007Z,31.59
2019-02-16T17:38:47.094Z,30.03
2019-02-16T17:41:36.196Z,30.62
2019-02-16T17:44:24.147Z,31.45
2019-02-16T17:47:12.101Z,30.98
2019-02-16T17:50:05.666Z,31.10
2019-02-16T17:52:53.685Z,31.37
2019-02-16T17:55:42.826Z,31.19
2019-02-16T17:58:37.820Z,32.67
2019-02-16T18:01:39.197Z,33.10
2019-02-16T18:04:28.266Z,33.31
2019-02-16T18:07:20.102Z,34.71
2019-02-16T18:09:57.105Z,34.83
2019-02-16T18:12:46.426Z,35.24
2019-02-16T18:15:44.504Z,35.23
2019-02-16T18:18:20.475Z,36.24
2019-02-16T18:21:14.551Z,36.07
2019-02-16T18:24:03.607Z,37.10
2019-02-16T18:26:45.319Z,37.35
2019-02-16T18:29:34.412Z,37.34
2019-02-16T18:32:31.098Z,38.12
2019-02-16T18:35:22.043Z,37.40
2019-02-16T18:37:59.937Z,44.29
2019-02-16T18:40:45.607Z,37.73
2019-02-16T18:43:44.037Z,39.17
2019-02-16T18:46:39.201Z,39.69
2019-02-16T18:49:28.255Z,36.74
2019-02-16T18:52:08.114Z,35.63
2019-02-16T18:54:56.084Z,35.62
2019-02-16T18:57:45.126Z,35.70
2019-02-16T19:00:37.189Z,35.79
2019-02-16T19:03:35.706Z,36.24
2019-02-16T19:06:40.076Z,35.77
2019-02-16T19:09:22.746Z,37.65
2019-02-16T19:12:21.201Z,37.84
2019-02-16T19:15:01.416Z,37.34
2019-02-16T19:17:38.765Z,37.94
2019-02-16T19:20:17.596Z,37.02
2019-02-16T19:23:05.353Z,37.72
2019-02-16T19:25:57.311Z,37.69
2019-02-16T19:28:39.064Z,38.23
2019-02-16T19:31:43.250Z,38.39
2019-02-16T19:34:35.179Z,38.40
2019-02-16T19:37:27.058Z,38.06
2019-02-16T19:40:16.147Z,38.57
2019-02-16T19:43:05.572Z,38.65
2019-02-16T19:45:58.646Z,38.74
2019-02-16T19:48:46.527Z,38.95
2019-02-16T19:51:50.753Z,39.70
2019-02-16T19:54:51.974Z,39.58
2019-02-16T19:57:39.944Z,38.95
2019-02-16T20:00:28.916Z,39.63
2019-02-16T20:03:21.056Z,40.51
2019-02-16T20:06:22.575Z,40.03
2019-02-16T20:09:20.762Z,41.01
2019-02-16T20:12:16.321Z,40.26
2019-02-16T20:15:08.701Z,39.09
2019-02-16T20:17:55.389Z,41.21
2019-02-16T20:20:39.510Z,38.14
2019-02-16T20:23:27.443Z,39.46
2019-02-16T20:26:31.590Z,39.91
2019-02-16T20:29:24.022Z,39.54
2019-02-16T20:32:05.976Z,39.37
2019-02-16T20:35:10.251Z,39.42
2019-02-16T20:38:02.431Z,42.27
2019-02-16T20:40:36.972Z,44.62
2019-02-16T20:43:29.266Z,43.02
2019-02-16T20:46:33.629Z,44.46
2019-02-16T20:49:40.897Z,45.99
2019-02-16T20:52:28.834Z,44.50
2019-02-16T20:55:06.755Z,43.41
2019-02-16T20:57:58.944Z,42.82
2019-02-16T21:00:48.025Z,42.42
2019-02-16T21:03:28.419Z,45.39
2019-02-16T21:06:17.499Z,43.45
2019-02-16T21:08:56.030Z,42.92
2019-02-16T21:11:43.521Z,43.90
2019-02-16T21:14:28.699Z,43.30
2019-02-16T21:17:17.797Z,42.36
2019-02-16T21:20:16.241Z,44.66
2019-02-16T21:23:03.965Z,44.99
2019-02-16T21:25:56.066Z,46.01
2019-02-16T21:28:45.141Z,43.65
2019-02-16T21:31:49.402Z,45.45
2019-02-16T21:34:47.512Z,46.21
2019-02-16T21:37:44.324Z,56.39
2019-02-16T21:40:25.282Z,46.77
2019-02-16T21:43:15.879Z,48.31
2019-02-16T21:46:03.679Z,45.55
2019-02-16T21:48:58.817Z,47.02
2019-02-16T21:51:44.406Z,45.47
2019-02-16T21:54:39.406Z,45.64
2019-02-16T21:57:37.622Z,47.47
2019-02-16T22:00:38.007Z,49.67
2019-02-16T22:03:25.890Z,48.22
2019-02-16T22:06:20.958Z,47.10
2019-02-16T22:09:25.421Z,44.32
2019-02-16T22:12:17.101Z,43.79
2019-02-16T22:14:47.746Z,43.62
2019-02-16T22:17:18.148Z,45.75
2019-02-16T22:19:48.459Z,46.41
2019-02-16T22:22:19.071Z,45.18
2019-02-16T22:24:49.640Z,44.45
2019-02-16T22:27:20.151Z,43.75
2019-02-16T22:29:50.826Z,42.90
2019-02-16T22:32:21.439Z,42.93
2019-02-16T22:34:52.023Z,42.91
2019-02-16T22:37:22.533Z,42.50
2019-02-16T22:39:53.077Z,44.17
2019-02-16T22:42:23.971Z,45.37
2019-02-16T22:44:54.523Z,44.54
2019-02-16T22:47:25.047Z,45.11
2019-02-16T22:49:55.805Z,45.99
2019-02-16T22:52:26.367Z,44.31
2019-02-16T22:54:56.953Z,43.52
2019-02-16T22:57:27.542Z,43.24
2019-02-16T22:59:58.074Z,43.39
2019-02-16T23:02:28.542Z,44.24
2019-02-16T23:04:59.023Z,46.11
2019-02-16T23:07:29.453Z,44.02
2019-02-16T23:09:59.918Z,43.31
2019-02-16T23:12:30.278Z,43.17
2019-02-16T23:15:00.682Z,44.31
2019-02-16T23:17:31.028Z,46.00
2019-02-16T23:20:01.314Z,45.75
2019-02-16T23:22:31.533Z,44.15
2019-02-16T23:25:01.816Z,45.78
2019-02-16T23:27:32.152Z,45.72
2019-02-16T23:30:02.442Z,44.63
2019-02-16T23:32:32.730Z,44.03
2019-02-16T23:35:03.003Z,44.29
2019-02-16T23:37:33.257Z,44.42
2019-02-16T23:40:03.557Z,43.72
2019-02-16T23:42:33.990Z,43.73
2019-02-16T23:45:04.273Z,44.39
2019-02-16T23:47:34.500Z,45.01
2019-02-16T23:50:05.085Z,44.35
2019-02-16T23:52:35.407Z,43.98
2019-02-16T23:55:05.902Z,44.32
2019-02-16T23:57:36.138Z,45.24
